Time;durP1;ratioP1;P1;durP2;ratioP2;P2;SDS_P1;SDS_P2;PMS_P1;PMS_P2;Temp;Humidity;BMP_temperature;BMP_pressure;BME280_temperature;BME280_humidity;BME280_pressure;Samples;Min_cycle;Max_cycle;Signal;HPM_P1;HPM_P2
2022/10/21 04:01:36;;;;;;;15.77;9.67;;;14.50;99.90;;;;;;5408235;23;20511;-73
2022/10/21 04:04:03;;;;;;;14.73;10.03;;;14.50;99.90;;;;;;4909771;29;20459;-74
2022/10/21 04:06:30;;;;;;;25.87;12.10;;;14.50;99.90;;;;;;4910323;29;20466;-72
2022/10/21 04:08:57;;;;;;;18.57;11.30;;;14.50;99.90;;;;;;4910145;29;20844;-71
2022/10/21 04:11:23;;;;;;;17.47;11.70;;;14.50;99.90;;;;;;4900184;29;20491;-75
2022/10/21 04:13:51;;;;;;;23.10;12.57;;;14.60;99.90;;;;;;4890807;29;20460;-73
2022/10/21 04:16:20;;;;;;;21.67;10.90;;;14.60;99.90;;;;;;4890578;29;20467;-74
2022/10/21 04:18:48;;;;;;;20.73;12.73;;;14.60;99.90;;;;;;4891968;29;20464;-72
2022/10/21 04:21:15;;;;;;;14.00;11.33;;;14.50;99.90;;;;;;4891950;29;20504;-72
2022/10/21 04:23:42;;;;;;;27.27;13.20;;;14.60;99.90;;;;;;4891875;29;20467;-74
2022/10/21 04:26:10;;;;;;;22.63;13.43;;;14.60;99.90;;;;;;4890500;29;20460;-68
2022/10/21 04:28:36;;;;;;;29.30;14.73;;;14.60;99.90;;;;;;4891599;29;21100;-72
2022/10/21 04:31:03;;;;;;;22.10;14.30;;;14.60;99.90;;;;;;4891090;29;20973;-72
2022/10/21 04:33:30;;;;;;;18.47;11.30;;;14.60;99.90;;;;;;4890654;29;20851;-72
2022/10/21 04:35:58;;;;;;;20.67;12.03;;;14.60;99.90;;;;;;4890636;29;20502;-72
2022/10/21 04:38:26;;;;;;;23.00;11.40;;;14.60;99.90;;;;;;4891350;29;20468;-73
2022/10/21 04:40:56;;;;;;;20.10;13.00;;;14.60;99.90;;;;;;4890793;29;20507;-73
2022/10/21 04:43:23;;;;;;;35.00;12.47;;;14.60;99.90;;;;;;4892388;29;20467;-73
2022/10/21 04:45:50;;;;;;;25.37;14.37;;;14.60;99.90;;;;;;4891960;29;20495;-74
2022/10/21 04:48:17;;;;;;;24.03;12.40;;;14.60;99.90;;;;;;4892867;29;20474;-77
2022/10/21 04:50:44;;;;;;;24.13;14.20;;;14.60;99.90;;;;;;4892849;29;20483;-74
2022/10/21 04:53:12;;;;;;;20.93;14.17;;;14.60;99.90;;;;;;4892643;29;20456;-74
2022/10/21 04:55:40;;;;;;;18.17;11.80;;;14.50;99.90;;;;;;4891543;29;20468;-74
2022/10/21 04:58:06;;;;;;;24.37;12.80;;;14.60;99.90;;;;;;4892829;29;20463;-78
2022/10/21 05:00:33;;;;;;;31.33;13.77;;;14.60;99.90;;;;;;4892457;29;20888;-76
2022/10/21 05:03:00;;;;;;;22.93;14.23;;;14.60;99.90;;;;;;4892527;29;20448;-75
2022/10/21 05:05:27;;;;;;;20.30;14.40;;;14.60;99.90;;;;;;4891999;29;20497;-80
2022/10/21 05:07:54;;;;;;;23.00;14.20;;;14.60;99.90;;;;;;4892728;29;20475;-74
2022/10/21 05:10:22;;;;;;;30.17;14.80;;;14.70;99.90;;;;;;4892259;29;20468;-76
2022/10/21 05:12:49;;;;;;;22.40;13.93;;;14.70;99.90;;;;;;4892123;29;20460;-75
2022/10/21 05:15:16;;;;;;;23.63;14.07;;;14.70;99.90;;;;;;4891156;29;20460;-80
2022/10/21 05:17:43;;;;;;;25.23;15.03;;;14.70;99.90;;;;;;4892329;29;20456;-74
2022/10/21 05:20:10;;;;;;;22.23;14.20;;;14.70;99.90;;;;;;4891167;29;20464;-76
2022/10/21 05:22:37;;;;;;;33.93;14.47;;;14.70;99.90;;;;;;4892417;29;20510;-74
2022/10/21 05:25:05;;;;;;;22.00;12.73;;;14.70;99.90;;;;;;4890625;29;20475;-78
2022/10/21 05:27:33;;;;;;;19.60;12.70;;;14.70;99.90;;;;;;4892288;29;20839;-74
2022/10/21 05:30:00;;;;;;;27.10;14.97;;;14.70;99.90;;;;;;4892550;29;20468;-74
2022/10/21 05:32:27;;;;;;;23.50;13.47;;;14.70;99.90;;;;;;4891758;29;20988;-74
2022/10/21 05:34:53;;;;;;;23.30;12.53;;;14.70;99.90;;;;;;4889856;29;20474;-74
2022/10/21 05:37:20;;;;;;;23.27;13.80;;;14.70;99.90;;;;;;4892228;29;20464;-74
2022/10/21 05:39:47;;;;;;;23.30;13.67;;;14.70;99.90;;;;;;4892215;29;20475;-74
2022/10/21 05:42:14;;;;;;;21.30;13.57;;;14.70;99.90;;;;;;4891304;29;20508;-76
2022/10/21 05:44:42;;;;;;;19.80;13.60;;;14.70;99.90;;;;;;4891856;29;20460;-76
2022/10/21 05:47:09;;;;;;;19.10;13.40;;;14.60;99.90;;;;;;4894987;29;20462;-73
2022/10/21 05:49:35;;;;;;;24.23;13.53;;;14.70;99.90;;;;;;4895454;29;20567;-74
2022/10/21 05:52:02;;;;;;;26.40;12.73;;;14.60;99.90;;;;;;4895400;29;20487;-74
2022/10/21 05:54:29;;;;;;;22.23;13.33;;;14.70;99.90;;;;;;4894975;29;20472;-76
2022/10/21 05:56:56;;;;;;;17.30;12.00;;;14.70;99.90;;;;;;4895250;29;20952;-75
2022/10/21 05:59:22;;;;;;;18.23;12.40;;;14.70;99.90;;;;;;4895681;29;20853;-75
2022/10/21 06:01:51;;;;;;;18.13;11.80;;;14.70;99.90;;;;;;4895142;29;21085;-76
2022/10/21 06:04:18;;;;;;;22.60;13.70;;;14.70;99.90;;;;;;4894969;29;20464;-75
2022/10/21 06:06:44;;;;;;;20.87;13.40;;;14.70;99.90;;;;;;4895190;29;20464;-75
2022/10/21 06:09:11;;;;;;;19.23;13.47;;;14.70;99.90;;;;;;4895234;29;20460;-78
2022/10/21 06:11:38;;;;;;;21.67;12.83;;;14.70;99.90;;;;;;4895526;29;20480;-75
2022/10/21 06:14:04;;;;;;;20.97;14.23;;;14.80;99.90;;;;;;4892960;29;20467;-74
2022/10/21 06:16:33;;;;;;;21.83;14.03;;;14.80;99.90;;;;;;4895043;29;20472;-74
2022/10/21 06:19:02;;;;;;;22.63;14.60;;;14.70;99.90;;;;;;4895103;29;20563;-77
2022/10/21 06:21:28;;;;;;;22.93;15.40;;;14.80;99.90;;;;;;4894815;29;20506;-79
2022/10/21 06:23:55;;;;;;;21.77;14.53;;;14.80;99.90;;;;;;4894949;29;20460;-74
2022/10/21 06:26:22;;;;;;;23.30;13.03;;;14.80;99.90;;;;;;4894970;29;20463;-76
2022/10/21 06:28:49;;;;;;;20.93;13.57;;;14.80;99.90;;;;;;4894985;29;20460;-74
2022/10/21 06:31:18;;;;;;;22.03;13.43;;;14.80;99.90;;;;;;4894619;29;20851;-74
2022/10/21 06:33:45;;;;;;;23.23;13.50;;;14.80;99.90;;;;;;4894970;29;20464;-75
2022/10/21 06:36:13;;;;;;;20.70;13.33;;;14.80;99.90;;;;;;4893423;29;20460;-75
2022/10/21 06:38:40;;;;;;;20.67;13.40;;;14.80;99.90;;;;;;4894704;29;20488;-74
2022/10/21 06:41:09;;;;;;;24.67;14.07;;;14.80;99.90;;;;;;4894392;29;20508;-78
2022/10/21 06:43:36;;;;;;;19.07;11.87;;;14.80;99.90;;;;;;4894556;29;20961;-74
2022/10/21 06:46:05;;;;;;;19.60;12.37;;;14.80;99.90;;;;;;4893927;29;20479;-76
2022/10/21 06:48:32;;;;;;;22.13;12.03;;;14.80;99.90;;;;;;4894388;29;20483;-74
2022/10/21 06:51:00;;;;;;;22.03;12.83;;;14.80;99.90;;;;;;4894319;29;20484;-74
2022/10/21 06:53:29;;;;;;;26.20;12.00;;;14.80;99.90;;;;;;4894313;29;20472;-77
2022/10/21 06:56:03;;;;;;;16.30;12.20;;;14.90;99.90;;;;;;4893555;29;20468;-74
2022/10/21 06:58:31;;;;;;;19.40;12.10;;;14.90;99.90;;;;;;4893825;29;20472;-74
2022/10/21 07:00:58;;;;;;;30.57;12.33;;;14.90;99.90;;;;;;4893681;29;20498;-76
2022/10/21 07:03:25;;;;;;;19.40;11.33;;;14.90;99.90;;;;;;4894275;29;20961;-74
2022/10/21 07:05:57;;;;;;;18.37;14.20;;;15.00;99.90;;;;;;4893726;29;20484;-77
2022/10/21 07:08:25;;;;;;;18.73;13.40;;;15.00;99.90;;;;;;4894153;29;20833;-79
2022/10/21 07:10:53;;;;;;;26.53;13.73;;;15.00;99.90;;;;;;4893909;29;21056;-77
2022/10/21 07:13:21;;;;;;;18.80;13.10;;;15.00;99.90;;;;;;4896090;29;20563;-74
2022/10/21 07:15:47;;;;;;;19.03;13.30;;;15.00;99.90;;;;;;4894539;29;20467;-74
2022/10/21 07:18:14;;;;;;;19.10;12.07;;;15.00;99.90;;;;;;4894655;29;20468;-74
2022/10/21 07:20:41;;;;;;;24.90;13.30;;;15.00;99.90;;;;;;4894629;29;21001;-74
2022/10/21 07:23:08;;;;;;;22.27;13.40;;;15.10;99.90;;;;;;4894789;29;21021;-73
2022/10/21 07:25:36;;;;;;;19.60;13.63;;;15.00;99.90;;;;;;4893849;29;20475;-73
2022/10/21 07:28:04;;;;;;;20.40;12.80;;;15.00;99.90;;;;;;4894589;29;20460;-77
2022/10/21 07:30:31;;;;;;;26.17;14.70;;;15.00;99.90;;;;;;4894797;29;20956;-79
2022/10/21 07:32:58;;;;;;;23.87;13.90;;;15.00;99.90;;;;;;4894645;29;20460;-73
2022/10/21 07:35:24;;;;;;;22.00;12.70;;;15.00;99.90;;;;;;4893014;29;20469;-76
2022/10/21 07:37:51;;;;;;;22.13;11.90;;;15.10;99.90;;;;;;4894226;29;20449;-76
2022/10/21 07:40:18;;;;;;;17.93;9.60;;;15.10;99.90;;;;;;4894471;29;20471;-73
2022/10/21 07:42:45;;;;;;;18.10;9.30;;;15.10;99.90;;;;;;4894489;29;20505;-76
2022/10/21 07:45:13;;;;;;;26.20;10.87;;;15.10;99.90;;;;;;4893916;29;20571;-74
2022/10/21 07:47:40;;;;;;;20.20;11.07;;;15.20;99.90;;;;;;4894252;29;20470;-74
2022/10/21 07:50:07;;;;;;;23.23;11.20;;;15.10;99.90;;;;;;4894546;29;20464;-73
2022/10/21 07:52:34;;;;;;;17.60;11.50;;;15.10;99.90;;;;;;4894298;29;20483;-73
2022/10/21 07:55:01;;;;;;;16.43;11.40;;;15.20;99.90;;;;;;4893329;29;20472;-74
2022/10/21 07:57:28;;;;;;;19.83;10.63;;;15.20;99.90;;;;;;4894475;29;20460;-73
2022/10/21 07:59:56;;;;;;;17.63;9.60;;;15.20;99.90;;;;;;4894484;29;20835;-73
2022/10/21 08:02:25;;;;;;;18.17;10.13;;;15.30;99.90;;;;;;4894164;29;20515;-74
2022/10/21 08:04:54;;;;;;;20.20;10.63;;;15.30;99.90;;;;;;4893254;29;20463;-73
2022/10/21 08:07:21;;;;;;;19.70;9.90;;;15.30;99.90;;;;;;4893970;29;20468;-74
2022/10/21 08:09:48;;;;;;;22.00;9.83;;;15.30;99.90;;;;;;4893189;29;20456;-76
2022/10/21 08:12:14;;;;;;;18.53;9.67;;;15.40;99.90;;;;;;4893761;29;21001;-75
2022/10/21 08:14:41;;;;;;;19.03;10.00;;;15.40;99.90;;;;;;4893265;29;21085;-73
2022/10/21 08:17:08;;;;;;;21.13;11.50;;;15.50;99.90;;;;;;4893862;29;20474;-78
2022/10/21 08:19:36;;;;;;;21.10;13.57;;;15.50;99.90;;;;;;4893084;29;20471;-74
2022/10/21 08:22:03;;;;;;;22.17;14.87;;;15.50;99.90;;;;;;4890477;29;20499;-76
2022/10/21 08:24:30;;;;;;;23.80;13.07;;;15.50;99.90;;;;;;4889756;29;20520;-74
2022/10/21 08:26:57;;;;;;;22.87;12.17;;;15.60;99.90;;;;;;4890762;29;20468;-80
2022/10/21 08:29:24;;;;;;;21.43;12.17;;;15.60;99.90;;;;;;4891360;29;20471;-74
2022/10/21 08:31:51;;;;;;;15.97;9.97;;;15.60;99.90;;;;;;4891129;29;20507;-76
2022/10/21 08:34:18;;;;;;;16.53;9.40;;;15.60;99.90;;;;;;4889882;29;20471;-73
2022/10/21 08:36:46;;;;;;;16.07;8.50;;;15.60;99.90;;;;;;4891280;29;20466;-74
2022/10/21 08:39:12;;;;;;;16.43;8.40;;;15.70;99.90;;;;;;4890947;29;20547;-74
2022/10/21 08:42:01;;;;;;;15.43;8.20;;;15.70;99.90;;;;;;4890594;29;20499;-74
2022/10/21 08:44:35;;;;;;;16.73;8.10;;;15.70;99.90;;;;;;4890244;29;20468;-75
2022/10/21 08:47:10;;;;;;;20.07;8.10;;;15.80;99.90;;;;;;4890685;29;20960;-79
2022/10/21 08:49:47;;;;;;;14.00;8.03;;;15.80;99.90;;;;;;4890666;29;21015;-74
2022/10/21 08:52:20;;;;;;;13.30;6.60;;;15.80;99.90;;;;;;4890647;29;20479;-73
2022/10/21 08:54:54;;;;;;;13.37;6.30;;;15.80;99.90;;;;;;4890109;29;20486;-77
2022/10/21 08:57:22;;;;;;;16.80;8.03;;;15.90;99.90;;;;;;4890643;29;20445;-77
2022/10/21 08:59:49;;;;;;;17.53;7.50;;;15.90;99.90;;;;;;4890373;29;20962;-73
2022/10/21 09:02:39;;;;;;;15.17;7.63;;;15.90;99.90;;;;;;4890393;29;20499;-75
2022/10/21 09:05:30;;;;;;;13.90;6.70;;;15.90;99.90;;;;;;4890248;29;20448;-77
2022/10/21 09:08:14;;;;;;;16.40;7.03;;;15.90;99.90;;;;;;4887904;29;20511;-74
2022/10/21 09:10:54;;;;;;;15.90;6.83;;;16.00;99.90;;;;;;4890523;29;20510;-73
2022/10/21 09:13:33;;;;;;;15.63;7.43;;;15.90;99.90;;;;;;4890902;29;20454;-74
2022/10/21 09:16:07;;;;;;;22.97;7.43;;;15.90;99.90;;;;;;4892200;29;20444;-75
2022/10/21 09:18:48;;;;;;;13.97;7.17;;;15.90;99.90;;;;;;4892542;29;20840;-74
2022/10/21 09:21:23;;;;;;;16.70;8.30;;;15.90;99.90;;;;;;4892579;29;20479;-74
2022/10/21 09:24:01;;;;;;;18.03;8.40;;;15.90;99.90;;;;;;4892867;29;20480;-73
2022/10/21 09:26:35;;;;;;;22.60;10.03;;;15.90;99.90;;;;;;4892781;29;20455;-77
2022/10/21 09:29:24;;;;;;;16.37;9.83;;;15.80;99.90;;;;;;4892589;29;21356;-73
2022/10/21 09:31:51;;;;;;;22.10;10.63;;;15.80;99.90;;;;;;4893665;29;20492;-76
2022/10/21 09:34:27;;;;;;;20.83;9.97;;;15.80;99.90;;;;;;4891320;29;20554;-73
2022/10/21 09:36:57;;;;;;;17.37;9.90;;;15.90;99.90;;;;;;4892472;29;20448;-77
2022/10/21 09:39:33;;;;;;;14.93;9.77;;;15.90;99.90;;;;;;4892479;29;20479;-79
2022/10/21 09:42:00;;;;;;;18.60;10.47;;;15.90;99.90;;;;;;4892068;29;20483;-76
2022/10/21 09:44:27;;;;;;;19.67;10.60;;;15.90;99.90;;;;;;4891740;29;20475;-77
2022/10/21 09:46:54;;;;;;;19.27;10.10;;;15.90;99.90;;;;;;4892155;29;20475;-76
2022/10/21 09:49:28;;;;;;;21.83;12.07;;;16.00;99.90;;;;;;4892979;29;20479;-75
2022/10/21 09:51:58;;;;;;;18.43;10.30;;;16.00;99.90;;;;;;4892978;29;20491;-74
2022/10/21 09:54:29;;;;;;;22.70;11.30;;;16.10;99.90;;;;;;4892375;29;20462;-74
2022/10/21 09:57:04;;;;;;;22.07;11.17;;;16.10;99.90;;;;;;4892457;29;20964;-76
2022/10/21 09:59:31;;;;;;;28.83;11.20;;;16.10;99.90;;;;;;4892828;29;20448;-74
2022/10/21 10:02:05;;;;;;;20.93;11.53;;;16.10;99.90;;;;;;4892067;29;20503;-75
2022/10/21 10:04:33;;;;;;;16.20;10.17;;;16.20;99.90;;;;;;4891506;29;20515;-75
2022/10/21 10:07:02;;;;;;;18.03;7.77;;;16.20;99.90;;;;;;4891862;29;20471;-74
2022/10/21 10:09:33;;;;;;;18.90;9.70;;;16.20;99.90;;;;;;4891567;29;21296;-78
2022/10/21 10:12:02;;;;;;;15.13;9.73;;;16.20;99.90;;;;;;4891848;29;20492;-74
2022/10/21 10:14:34;;;;;;;23.13;10.60;;;16.20;99.90;;;;;;4891404;29;20467;-75
2022/10/21 10:17:27;;;;;;;26.60;10.60;;;16.20;99.90;;;;;;4892130;29;20468;-75
2022/10/21 10:20:20;;;;;;;23.83;10.90;;;16.20;99.90;;;;;;4889571;29;20480;-76
2022/10/21 10:23:07;;;;;;;20.63;12.23;;;16.10;99.90;;;;;;4891724;29;20480;-74
2022/10/21 10:25:38;;;;;;;19.50;11.73;;;16.10;99.90;;;;;;4891339;29;20515;-74
2022/10/21 10:28:18;;;;;;;20.80;12.20;;;16.10;99.90;;;;;;4892036;29;20444;-77
2022/10/21 10:30:48;;;;;;;26.00;12.30;;;16.10;99.90;;;;;;4892351;29;21023;-76
2022/10/21 10:33:18;;;;;;;21.20;11.63;;;16.20;99.90;;;;;;4894495;29;20464;-74
2022/10/21 10:35:48;;;;;;;19.40;9.80;;;16.20;99.90;;;;;;4895012;29;20459;-76
2022/10/21 10:38:21;;;;;;;18.70;9.93;;;16.20;99.90;;;;;;4895829;29;20464;-77
2022/10/21 10:40:49;;;;;;;21.93;10.33;;;16.30;99.90;;;;;;4895378;29;21341;-79
2022/10/21 10:43:30;;;;;;;16.60;8.50;;;16.20;99.90;;;;;;4895361;29;20882;-75
2022/10/21 10:46:00;;;;;;;18.50;9.33;;;16.30;99.90;;;;;;4894843;29;20467;-76
2022/10/21 10:48:34;;;;;;;17.17;9.30;;;16.30;99.90;;;;;;4895405;29;20464;-75
2022/10/21 10:51:07;;;;;;;21.07;9.97;;;16.30;99.90;;;;;;4895135;29;20968;-74
2022/10/21 10:53:36;;;;;;;17.53;8.63;;;16.30;99.90;;;;;;4895375;29;20449;-77
2022/10/21 10:56:22;;;;;;;19.17;9.63;;;16.40;99.90;;;;;;4894209;29;20471;-78
2022/10/21 10:58:53;;;;;;;17.37;9.53;;;16.50;99.90;;;;;;4894895;29;20448;-74
2022/10/21 11:01:28;;;;;;;20.53;12.90;;;16.50;99.90;;;;;;4895002;29;20496;-75
2022/10/21 11:04:00;;;;;;;19.57;11.40;;;16.60;99.90;;;;;;4894591;29;20483;-75
2022/10/21 11:06:35;;;;;;;17.53;10.53;;;16.60;99.90;;;;;;4894805;29;20467;-75
2022/10/21 11:09:03;;;;;;;20.33;10.23;;;16.70;99.90;;;;;;4894320;29;20451;-76
2022/10/21 11:11:36;;;;;;;18.57;10.60;;;16.70;99.90;;;;;;4894447;29;20495;-80
2022/10/21 11:14:03;;;;;;;18.70;10.30;;;16.80;99.90;;;;;;4893666;29;20444;-74
2022/10/21 11:17:05;;;;;;;22.80;10.90;;;16.80;99.90;;;;;;4893631;29;20468;-79
2022/10/21 11:19:39;;;;;;;16.67;9.77;;;16.90;99.90;;;;;;4894428;29;20459;-75
2022/10/21 11:22:13;;;;;;;18.30;9.90;;;16.90;99.90;;;;;;4892850;29;21380;-74
2022/10/21 11:24:56;;;;;;;19.77;10.17;;;16.90;99.90;;;;;;4893942;29;20443;-75
2022/10/21 11:27:50;;;;;;;17.80;9.90;;;16.90;99.90;;;;;;4894201;29;20465;-75
2022/10/21 11:30:19;;;;;;;19.03;9.03;;;17.00;99.90;;;;;;4888928;29;20856;-75
2022/10/21 11:33:09;;;;;;;14.57;9.27;;;17.00;99.90;;;;;;4894040;29;20811;-75
2022/10/21 11:35:43;;;;;;;18.33;9.70;;;17.10;99.90;;;;;;4893967;29;20448;-75
2022/10/21 11:38:32;;;;;;;19.43;9.67;;;17.10;99.90;;;;;;4894036;29;20445;-80
2022/10/21 11:41:06;;;;;;;20.47;10.33;;;17.30;99.90;;;;;;4894140;29;20492;-75
2022/10/21 11:43:44;;;;;;;15.83;8.30;;;17.40;99.90;;;;;;4892892;29;20489;-75
2022/10/21 11:46:17;;;;;;;20.57;8.33;;;17.50;99.90;;;;;;4893271;29;20467;-75
2022/10/21 11:49:00;;;;;;;14.43;7.23;;;17.50;99.90;;;;;;4893780;29;20464;-79
2022/10/21 11:51:39;;;;;;;9.40;5.20;;;17.50;99.90;;;;;;4894228;29;20482;-74
2022/10/21 11:54:29;;;;;;;7.77;5.33;;;17.50;99.90;;;;;;4893597;29;20444;-78
2022/10/21 11:57:03;;;;;;;10.53;4.80;;;17.60;99.90;;;;;;4894172;29;20440;-76
2022/10/21 11:59:45;;;;;;;6.93;3.60;;;17.60;99.90;;;;;;4894456;29;20452;-74
2022/10/21 12:02:20;;;;;;;6.87;3.33;;;17.60;99.90;;;;;;4894243;29;20500;-78
2022/10/21 12:04:54;;;;;;;8.30;3.37;;;17.60;99.90;;;;;;4895309;29;20865;-75
2022/10/21 12:07:46;;;;;;;6.83;3.53;;;17.60;99.90;;;;;;4893420;29;20507;-74
2022/10/21 12:10:29;;;;;;;5.70;3.37;;;17.70;99.90;;;;;;4893801;29;20473;-76
2022/10/21 12:13:01;;;;;;;5.77;3.07;;;17.70;99.90;;;;;;4893777;29;20468;-74
2022/10/21 12:15:35;;;;;;;14.73;3.00;;;17.70;99.90;;;;;;4891962;29;20475;-73
2022/10/21 12:18:04;;;;;;;4.47;2.50;;;17.70;99.90;;;;;;4892090;29;20444;-73
2022/10/21 12:20:32;;;;;;;3.23;2.40;;;17.70;99.90;;;;;;4892503;29;20471;-75
2022/10/21 12:23:01;;;;;;;6.43;3.07;;;17.70;99.90;;;;;;4891086;29;20496;-75
2022/10/21 12:25:36;;;;;;;6.40;3.20;;;17.80;99.90;;;;;;4890379;29;20953;-73
2022/10/21 12:28:11;;;;;;;5.93;2.80;;;17.80;99.90;;;;;;4890765;29;20433;-73
2022/10/21 12:30:43;;;;;;;6.37;2.70;;;17.80;99.90;;;;;;4890771;29;20484;-73
2022/10/21 12:33:17;;;;;;;5.87;3.10;;;17.70;99.90;;;;;;4890849;29;20447;-78
2022/10/21 12:35:49;;;;;;;7.17;2.77;;;17.80;99.90;;;;;;4890101;29;20479;-73
2022/10/21 12:38:43;;;;;;;9.93;4.00;;;17.80;99.90;;;;;;4891223;29;20795;-73
2022/10/21 12:41:28;;;;;;;5.20;2.40;;;17.80;99.90;;;;;;4890541;29;20480;-74
2022/10/21 12:44:02;;;;;;;3.73;2.43;;;17.90;99.90;;;;;;4890668;29;20492;-73
2022/10/21 12:46:34;;;;;;;4.17;2.30;;;17.90;99.90;;;;;;4890573;29;20464;-73
2022/10/21 12:49:04;;;;;;;5.77;2.87;;;17.80;99.90;;;;;;4890760;29;20476;-74
2022/10/21 12:51:33;;;;;;;4.30;2.40;;;17.90;99.90;;;;;;4890478;29;20487;-74
2022/10/21 12:54:07;;;;;;;3.53;2.00;;;17.90;99.90;;;;;;4890197;29;20463;-74
2022/10/21 12:56:37;;;;;;;3.53;2.13;;;18.00;99.90;;;;;;4889820;29;20527;-74
2022/10/21 12:59:05;;;;;;;7.03;2.50;;;18.00;99.90;;;;;;4890554;29;20751;-76
2022/10/21 13:01:42;;;;;;;7.17;2.03;;;18.00;99.90;;;;;;4890098;29;20503;-75
2022/10/21 13:04:41;;;;;;;4.77;2.53;;;18.10;99.90;;;;;;4890239;29;20555;-80
2022/10/21 13:07:31;;;;;;;3.63;2.10;;;18.10;99.90;;;;;;4889978;29;20845;-73
2022/10/21 13:10:35;;;;;;;8.77;2.00;;;18.10;99.90;;;;;;4890224;29;20496;-73
2022/10/21 13:13:34;;;;;;;7.20;1.83;;;18.10;99.90;;;;;;4890974;29;20466;-73
2022/10/21 13:16:17;;;;;;;4.53;2.40;;;18.10;99.90;;;;;;4889944;29;20492;-74
2022/10/21 13:19:00;;;;;;;4.50;2.30;;;18.10;99.90;;;;;;4890408;29;20471;-74
2022/10/21 13:21:37;;;;;;;4.77;2.10;;;18.10;99.90;;;;;;4890028;29;20490;-74
2022/10/21 13:24:23;;;;;;;6.73;2.40;;;18.00;99.90;;;;;;4889755;29;20969;-75
2022/10/21 13:26:53;;;;;;;4.40;1.80;;;18.00;99.90;;;;;;4890447;29;20455;-73
2022/10/21 13:29:43;;;;;;;3.40;1.70;;;18.00;99.90;;;;;;4890172;29;20971;-73
2022/10/21 13:32:27;;;;;;;3.43;1.90;;;18.00;99.90;;;;;;4890077;29;20495;-73
2022/10/21 13:35:02;;;;;;;3.93;2.00;;;18.00;99.90;;;;;;4888364;29;20744;-73
2022/10/21 13:37:32;;;;;;;5.20;2.17;;;17.90;99.90;;;;;;4890134;29;21034;-75
2022/10/21 13:40:01;;;;;;;3.10;1.50;;;17.90;99.90;;;;;;4890622;29;20552;-74
2022/10/21 13:42:35;;;;;;;1.83;1.57;;;17.90;99.90;;;;;;4889709;29;20487;-74
2022/10/21 13:45:07;;;;;;;3.30;1.73;;;18.00;99.90;;;;;;4889433;29;20673;-73
2022/10/21 13:47:35;;;;;;;5.63;1.83;;;18.00;99.90;;;;;;4889884;29;20464;-77
2022/10/21 13:50:15;;;;;;;3.93;1.80;;;18.00;99.90;;;;;;4889679;29;20456;-76
2022/10/21 13:52:44;;;;;;;3.77;1.83;;;18.00;99.90;;;;;;4890010;29;20751;-76
2022/10/21 13:55:19;;;;;;;3.00;1.70;;;18.10;99.90;;;;;;4889155;29;20464;-75
2022/10/21 13:57:48;;;;;;;6.73;2.30;;;18.10;99.90;;;;;;4889944;29;20491;-77
2022/10/21 14:00:20;;;;;;;3.97;1.83;;;18.20;99.90;;;;;;4889967;29;20460;-74
2022/10/21 14:02:48;;;;;;;5.67;2.27;;;18.20;99.90;;;;;;4889804;29;20468;-77
2022/10/21 14:05:33;;;;;;;5.80;2.20;;;18.10;99.90;;;;;;4889436;29;20506;-74
2022/10/21 14:07:59;;;;;;;5.50;2.27;;;18.10;99.90;;;;;;4890727;29;20472;-75
2022/10/21 14:10:28;;;;;;;4.27;2.13;;;18.10;99.90;;;;;;4893263;29;20479;-74
2022/10/21 14:12:57;;;;;;;2.90;1.83;;;18.10;99.90;;;;;;4893185;29;20837;-74
2022/10/21 14:15:35;;;;;;;2.40;2.03;;;18.10;99.90;;;;;;4892837;29;20456;-74
2022/10/21 14:18:02;;;;;;;5.23;2.20;;;18.10;99.90;;;;;;4893080;29;20836;-78
2022/10/21 14:20:33;;;;;;;2.73;1.90;;;18.10;99.90;;;;;;4892613;29;20471;-74
2022/10/21 14:23:02;;;;;;;3.40;1.67;;;18.10;99.90;;;;;;4893533;29;20455;-74
2022/10/21 14:25:29;;;;;;;8.20;2.20;;;18.10;99.90;;;;;;4892804;29;20495;-75
2022/10/21 14:27:58;;;;;;;5.23;1.70;;;18.10;99.90;;;;;;4893121;29;20468;-76
2022/10/21 14:30:28;;;;;;;5.90;1.83;;;18.00;99.90;;;;;;4892936;29;20472;-77
2022/10/21 14:32:58;;;;;;;3.17;1.50;;;18.00;99.90;;;;;;4892995;29;20507;-74
2022/10/21 14:35:27;;;;;;;5.03;1.83;;;18.00;99.90;;;;;;4892517;29;20887;-73
2022/10/21 14:37:57;;;;;;;6.27;2.33;;;18.00;99.90;;;;;;4892652;29;20463;-74
2022/10/21 14:40:30;;;;;;;3.50;2.00;;;18.00;99.90;;;;;;4893008;29;20470;-73
2022/10/21 14:42:59;;;;;;;2.97;1.60;;;18.00;99.90;;;;;;4892969;29;20855;-74
2022/10/21 14:45:28;;;;;;;2.50;1.60;;;18.00;99.90;;;;;;4892409;29;20503;-73
2022/10/21 14:48:02;;;;;;;2.43;1.63;;;18.00;99.90;;;;;;4892804;29;20460;-76
2022/10/21 14:50:29;;;;;;;2.50;1.47;;;17.90;99.90;;;;;;4892242;29;20472;-74
2022/10/21 14:52:57;;;;;;;3.00;1.70;;;17.90;99.90;;;;;;4892979;29;20475;-75
2022/10/21 14:55:28;;;;;;;4.03;1.43;;;17.80;99.90;;;;;;4892002;29;20467;-74
2022/10/21 14:58:02;;;;;;;2.47;1.60;;;17.80;99.90;;;;;;4892855;29;20467;-73
2022/10/21 15:00:31;;;;;;;1.93;1.50;;;17.80;99.90;;;;;;4892259;29;20524;-73
2022/10/21 15:02:59;;;;;;;2.47;1.40;;;17.80;99.90;;;;;;4892629;29;20456;-76
2022/10/21 15:05:34;;;;;;;4.77;2.00;;;17.80;99.90;;;;;;4891726;29;21036;-74
2022/10/21 15:08:32;;;;;;;6.07;2.40;;;17.80;99.90;;;;;;4893291;29;20468;-74
2022/10/21 15:11:34;;;;;;;2.70;1.60;;;17.70;99.90;;;;;;4835852;29;20482;-74
2022/10/21 15:14:30;;;;;;;2.77;2.00;;;17.70;99.90;;;;;;4863243;29;20471;-75
2022/10/21 15:16:59;;;;;;;6.13;1.87;;;17.70;99.90;;;;;;4893551;29;20480;-74
2022/10/21 15:19:29;;;;;;;3.97;1.97;;;17.70;99.90;;;;;;4894368;29;20459;-79
2022/10/21 15:21:58;;;;;;;6.20;1.70;;;17.70;99.90;;;;;;4894469;29;20487;-80
2022/10/21 15:24:35;;;;;;;3.23;1.47;;;17.60;99.90;;;;;;4893903;29;20504;-78
2022/10/21 15:27:02;;;;;;;2.70;1.67;;;17.60;99.90;;;;;;4894859;29;20478;-73
2022/10/21 15:29:34;;;;;;;3.80;1.90;;;17.60;99.90;;;;;;4893163;29;20826;-74
2022/10/21 15:32:01;;;;;;;2.67;2.00;;;17.60;99.90;;;;;;4893563;29;20492;-75
2022/10/21 15:34:29;;;;;;;3.10;1.77;;;17.70;99.90;;;;;;4892339;29;20466;-74
2022/10/21 15:36:55;;;;;;;2.27;1.50;;;17.60;99.90;;;;;;4892814;29;20468;-75
2022/10/21 15:39:22;;;;;;;5.37;3.57;;;17.60;99.90;;;;;;4893093;29;20463;-73
2022/10/21 15:41:53;;;;;;;3.77;1.77;;;17.60;99.90;;;;;;4893090;29;20490;-74
2022/10/21 15:44:24;;;;;;;2.10;1.83;;;17.60;99.90;;;;;;4892380;29;20488;-74
2022/10/21 15:46:56;;;;;;;2.50;1.90;;;17.60;99.90;;;;;;4892749;29;20921;-73
2022/10/21 15:49:26;;;;;;;2.77;1.90;;;17.60;99.90;;;;;;4892823;29;20548;-74
2022/10/21 15:51:53;;;;;;;2.30;1.60;;;17.60;99.90;;;;;;4892500;29;20883;-74
2022/10/21 15:54:21;;;;;;;4.57;1.90;;;17.70;99.90;;;;;;4892248;29;20460;-76
2022/10/21 15:56:51;;;;;;;3.83;2.03;;;17.60;99.90;;;;;;4892686;29;20472;-73
2022/10/21 15:59:20;;;;;;;3.40;2.00;;;17.60;99.90;;;;;;4892665;29;20949;-77
2022/10/21 16:01:48;;;;;;;2.33;1.70;;;17.50;99.90;;;;;;4892194;29;20511;-74
2022/10/21 16:04:15;;;;;;;3.30;1.50;;;17.50;99.90;;;;;;4891781;29;20582;-75
2022/10/21 16:06:46;;;;;;;3.07;2.00;;;17.50;99.90;;;;;;4893086;29;20460;-73
2022/10/21 16:09:14;;;;;;;3.50;2.00;;;17.50;99.90;;;;;;4892689;29;20452;-75
2022/10/21 16:11:41;;;;;;;2.10;1.90;;;17.50;99.90;;;;;;4894188;29;20511;-74
2022/10/21 16:14:13;;;;;;;6.70;2.10;;;17.50;99.90;;;;;;4893398;29;20463;-78
2022/10/21 16:16:46;;;;;;;5.27;2.30;;;17.50;99.90;;;;;;4893568;29;20543;-74
2022/10/21 16:19:14;;;;;;;3.20;2.77;;;17.50;99.90;;;;;;4893281;29;20504;-75
2022/10/21 16:21:41;;;;;;;6.20;3.00;;;17.50;99.90;;;;;;4892348;29;20475;-74
2022/10/21 16:24:08;;;;;;;4.17;2.60;;;17.50;99.90;;;;;;4891719;29;20460;-81
2022/10/21 16:26:40;;;;;;;8.63;2.80;;;17.40;99.90;;;;;;4892977;29;20467;-74
2022/10/21 16:29:07;;;;;;;3.73;3.07;;;17.40;99.90;;;;;;4892806;29;20949;-74
2022/10/21 16:31:35;;;;;;;4.57;3.47;;;17.40;99.90;;;;;;4892722;29;20519;-74
2022/10/21 16:34:01;;;;;;;3.80;2.97;;;17.40;99.90;;;;;;4892994;29;20460;-75
2022/10/21 16:36:35;;;;;;;5.33;2.70;;;17.30;99.90;;;;;;4893411;29;20460;-76
2022/10/21 16:39:02;;;;;;;6.43;2.90;;;17.30;99.90;;;;;;4893591;29;20883;-74
2022/10/21 16:41:31;;;;;;;5.23;3.57;;;17.30;99.90;;;;;;4893440;29;20487;-75
2022/10/21 16:43:58;;;;;;;4.23;2.97;;;17.20;99.90;;;;;;4892846;29;20559;-81
2022/10/21 16:46:29;;;;;;;6.43;3.00;;;17.20;99.90;;;;;;4893317;29;20517;-81
2022/10/21 16:48:58;;;;;;;6.13;2.80;;;17.10;99.90;;;;;;4893772;29;20508;-74
2022/10/21 16:51:27;;;;;;;4.80;3.10;;;17.10;99.90;;;;;;4893348;29;20484;-73
2022/10/21 16:53:54;;;;;;;10.77;3.07;;;17.10;99.90;;;;;;4892699;29;20468;-71
2022/10/21 16:56:21;;;;;;;11.13;8.57;;;17.10;99.90;;;;;;4893236;29;21171;-71
2022/10/21 16:58:48;;;;;;;10.80;5.50;;;17.10;99.90;;;;;;4894458;29;20844;-76